Aniak Airport
PANI : rendu visible

Aérodrome :











RETROUVEZ-NOUS SUR...

 
LOGIN :

S'inscrire | Disclaimer

   EN    FR    IT 

 









Légende :    VFR   VFR Marginal   IFR   IFR Intensif   IFR Très Intensif
Visi : 
Plafond : 
>= 8 km
>= 3000ft
5 à 8 km
1000 à 3000 ft
1500m à 5 km
500 à 1000 ft
800 à 1500m
200 à 500 ft
< 800m
< 200 ft
Symboles :   Orages  Brouillard  Fortes neiges  Fortes précipitations  Vent > 20 kt






- Altitude de l'aérodrome : 88 ft
- Code IATA : ANI


PANI - Aniak

DERNIER METAR :
  • 091356Z AUTO 11007KT 10SM OVC023 M08/M14 A3028 RMK AO2 SNE01 SLP257 P0000 T10781139 FZRANO

METARs EXPIRÉS :
  • 091256Z AUTO 10006KT 9SM -SN BKN023 OVC028 M08/M14 A3028 RMK AO2 SNB42 SLP256 P0000 T10831144 FZRANO
  • 091247Z AUTO 11007KT 9SM -SN BKN027 OVC035 M08/M14 A3027 RMK AO2 SNB42 P0000 FZRANO
  • 091230Z AUTO 11007KT 10SM FEW027 OVC034 M08/M14 A3027 RMK AO2 FZRANO
  • 091156Z AUTO 10007KT 10SM OVC029 M09/M15 A3027 RMK AO2 SNB09E22 SLP253 P0000 60000 T10891150 11089 21106 53008 FZRANO

TAF N/A



MET'MAP, la Météo Aéronautique d'un coup d'oeil ! - Copyright ORBIFLY Décembre 2007 - Disclaimer

ORBIFLY MET'MAP TEAM :

Programmation & Développement : Alexandra Zaïnal
Sur une idée originale de : Baudouin d'Aumeries
Assistance à la programmation : Marc-Olivier Méhu
Soutien technique & logistique : Manuel Goepfert

Contact : metmap@orbifly.com




SOURCES & CREDITS :

   NOAA       Earth
Advisory